createdAt,value
2018-04-14T00:00:23.112Z,0.00
2018-04-14T00:01:23.055Z,0.00
2018-04-14T00:03:14.889Z,0.00
2018-04-14T00:04:14.798Z,0.00
2018-04-14T00:06:07.080Z,0.00
2018-04-14T00:07:07.018Z,0.00
2018-04-14T00:08:58.837Z,0.00
2018-04-14T00:09:58.751Z,0.00
2018-04-14T00:11:50.692Z,0.00
2018-04-14T00:12:50.618Z,0.00
2018-04-14T00:14:42.618Z,0.00
2018-04-14T00:15:42.502Z,0.00
2018-04-14T00:17:35.287Z,0.00
2018-04-14T00:18:35.230Z,0.00
2018-04-14T00:20:28.031Z,0.00
2018-04-14T00:21:27.938Z,0.00
2018-04-14T00:23:20.734Z,0.00
2018-04-14T00:24:20.668Z,0.00
2018-04-14T00:26:12.497Z,0.00
2018-04-14T00:27:12.434Z,0.00
2018-04-14T00:29:04.198Z,0.00
2018-04-14T00:30:04.132Z,0.00
2018-04-14T00:31:55.895Z,0.00
2018-04-14T00:32:55.831Z,0.00
2018-04-14T00:34:47.654Z,0.00
2018-04-14T00:35:47.615Z,0.00
2018-04-14T00:37:39.364Z,0.00
2018-04-14T00:38:39.282Z,0.00
2018-04-14T00:40:31.097Z,0.00
2018-04-14T00:41:31.017Z,0.00
2018-04-14T00:43:22.926Z,0.00
2018-04-14T00:44:22.939Z,0.00
2018-04-14T00:46:14.669Z,0.00
2018-04-14T00:47:14.617Z,0.00
2018-04-14T00:49:06.376Z,0.00
2018-04-14T00:50:06.305Z,0.00
2018-04-14T00:51:59.075Z,0.00
2018-04-14T00:52:59.057Z,0.00
2018-04-14T00:54:51.799Z,0.00
2018-04-14T00:55:51.727Z,0.00
2018-04-14T00:57:44.519Z,0.00
2018-04-14T00:58:44.442Z,0.00
2018-04-14T01:00:36.339Z,0.00
2018-04-14T01:01:36.260Z,0.00
2018-04-14T01:03:29.068Z,0.00
2018-04-14T01:04:28.975Z,0.00
2018-04-14T01:06:20.731Z,0.00
2018-04-14T01:07:20.666Z,0.00
2018-04-14T01:09:12.620Z,0.00
2018-04-14T01:10:12.542Z,0.00
2018-04-14T01:12:04.424Z,0.00
2018-04-14T01:13:04.348Z,0.00
2018-04-14T01:14:56.181Z,0.00
2018-04-14T01:15:56.102Z,0.00
2018-04-14T01:17:47.939Z,0.00
2018-04-14T01:18:47.871Z,0.00
2018-04-14T01:20:39.785Z,0.00
2018-04-14T01:21:39.707Z,0.00
2018-04-14T01:23:31.677Z,0.00
2018-04-14T01:24:31.600Z,0.00
2018-04-14T01:26:23.412Z,0.00
2018-04-14T01:27:23.334Z,0.00
2018-04-14T01:29:16.089Z,0.00
2018-04-14T01:30:16.030Z,0.00
2018-04-14T01:32:07.845Z,0.00
2018-04-14T01:33:07.769Z,0.00
2018-04-14T01:34:59.770Z,0.00
2018-04-14T01:35:59.672Z,0.00
2018-04-14T01:37:51.482Z,0.00
2018-04-14T01:38:51.380Z,0.00
2018-04-14T01:40:43.304Z,0.00
2018-04-14T01:41:43.183Z,0.00
2018-04-14T01:43:35.064Z,0.00
2018-04-14T01:44:35.001Z,0.00
2018-04-14T01:46:26.848Z,0.00
2018-04-14T01:47:26.767Z,0.00
2018-04-14T01:49:19.538Z,0.00
2018-04-14T01:50:19.479Z,0.00
2018-04-14T01:52:11.331Z,0.00
2018-04-14T01:53:11.244Z,0.00
2018-04-14T01:55:03.021Z,0.00
2018-04-14T01:56:02.939Z,0.00
2018-04-14T01:57:54.853Z,0.00
2018-04-14T01:58:54.772Z,0.00
2018-04-14T02:00:47.594Z,0.00
2018-04-14T02:01:47.501Z,0.00
2018-04-14T02:03:39.335Z,0.00
2018-04-14T02:04:39.272Z,0.00
2018-04-14T02:06:31.034Z,0.00
2018-04-14T02:07:30.959Z,0.00
2018-04-14T02:09:22.744Z,0.00
2018-04-14T02:10:22.683Z,0.00
2018-04-14T02:12:14.534Z,0.00
2018-04-14T02:13:14.445Z,0.00
2018-04-14T02:15:06.276Z,0.00
2018-04-14T02:16:06.181Z,0.00
2018-04-14T02:17:57.980Z,0.00
2018-04-14T02:18:57.905Z,0.00
2018-04-14T02:20:49.850Z,0.00
2018-04-14T02:21:49.788Z,0.00
2018-04-14T02:23:42.558Z,0.00
2018-04-14T02:24:42.480Z,0.00
2018-04-14T02:26:34.314Z,0.00
2018-04-14T02:27:34.217Z,0.00
2018-04-14T02:29:26.036Z,0.00
2018-04-14T02:30:25.972Z,0.00
2018-04-14T02:32:17.960Z,0.00
2018-04-14T02:33:17.872Z,0.00
2018-04-14T02:35:10.648Z,0.00
2018-04-14T02:36:10.584Z,0.00
2018-04-14T02:38:02.425Z,0.00
2018-04-14T02:39:02.385Z,0.00
2018-04-14T02:40:54.286Z,0.00
2018-04-14T02:41:54.272Z,0.00
2018-04-14T02:43:46.016Z,0.00
2018-04-14T02:44:45.937Z,0.00
2018-04-14T02:46:37.771Z,0.00
2018-04-14T02:47:37.710Z,0.00
2018-04-14T02:49:29.521Z,0.00
2018-04-14T02:50:29.418Z,0.00
2018-04-14T02:52:22.201Z,0.00
2018-04-14T02:53:22.129Z,0.00
2018-04-14T02:55:13.875Z,0.00
2018-04-14T02:56:13.813Z,0.00
2018-04-14T02:58:05.573Z,0.00
2018-04-14T02:59:05.497Z,0.00
2018-04-14T03:00:57.312Z,0.00
2018-04-14T03:01:57.228Z,0.00
2018-04-14T03:03:49.039Z,0.00
2018-04-14T03:04:48.941Z,0.00
2018-04-14T03:06:40.913Z,0.00
2018-04-14T03:07:40.828Z,0.00
2018-04-14T03:09:33.594Z,0.00
2018-04-14T03:10:33.518Z,0.00
2018-04-14T03:12:25.347Z,0.00
2018-04-14T03:13:25.277Z,0.00
2018-04-14T03:15:17.073Z,0.00
2018-04-14T03:16:17.008Z,0.00
2018-04-14T03:18:08.786Z,0.00
2018-04-14T03:19:08.717Z,0.00
2018-04-14T03:21:00.525Z,0.00
2018-04-14T03:22:00.467Z,0.00
2018-04-14T03:23:53.234Z,0.00
2018-04-14T03:24:53.164Z,0.00
2018-04-14T03:26:44.925Z,0.00
2018-04-14T03:27:44.849Z,0.00
2018-04-14T03:29:36.626Z,0.00
2018-04-14T03:30:36.549Z,0.00
2018-04-14T03:32:28.458Z,0.00
2018-04-14T03:33:28.388Z,0.00
2018-04-14T03:35:20.163Z,0.00
2018-04-14T03:36:20.107Z,0.00
2018-04-14T03:38:12.856Z,0.00
2018-04-14T03:39:12.797Z,0.00
2018-04-14T03:41:04.539Z,0.00
2018-04-14T03:42:04.475Z,0.00
2018-04-14T03:43:56.323Z,0.00
2018-04-14T03:44:56.200Z,0.00
2018-04-14T03:46:48.077Z,0.00
2018-04-14T03:47:48.008Z,0.00
2018-04-14T03:49:40.821Z,0.00
2018-04-14T03:50:40.759Z,0.00
2018-04-14T03:52:32.526Z,0.00
2018-04-14T03:53:32.461Z,0.00
2018-04-14T03:55:24.256Z,0.00
2018-04-14T03:56:24.160Z,0.00
2018-04-14T03:58:15.989Z,0.00
2018-04-14T03:59:15.915Z,0.00
2018-04-14T04:01:07.773Z,0.00
2018-04-14T04:02:07.731Z,0.00
2018-04-14T04:04:01.509Z,0.00
2018-04-14T04:05:01.421Z,0.00
2018-04-14T04:06:53.258Z,0.00
2018-04-14T04:07:53.222Z,0.00
2018-04-14T04:09:44.973Z,0.00
2018-04-14T04:10:44.897Z,0.00
2018-04-14T04:12:36.693Z,0.00
2018-04-14T04:13:36.607Z,0.00
2018-04-14T04:15:28.540Z,0.00
2018-04-14T04:16:28.464Z,0.00
2018-04-14T04:18:20.295Z,0.00
2018-04-14T04:19:20.209Z,0.00
2018-04-14T04:21:11.987Z,0.00
2018-04-14T04:22:11.909Z,0.00
2018-04-14T04:24:03.769Z,0.00
2018-04-14T04:25:03.704Z,0.00
2018-04-14T04:26:55.630Z,0.00
2018-04-14T04:27:55.527Z,0.00
2018-04-14T04:29:47.419Z,0.00
2018-04-14T04:30:47.339Z,0.00
2018-04-14T04:32:39.188Z,0.00
2018-04-14T04:33:39.115Z,0.00
2018-04-14T04:35:31.898Z,0.00
2018-04-14T04:36:31.824Z,0.00
2018-04-14T04:38:23.650Z,0.00
2018-04-14T04:39:23.589Z,0.00
2018-04-14T04:41:15.363Z,0.00
2018-04-14T04:42:15.286Z,0.00
2018-04-14T04:44:08.062Z,0.00
2018-04-14T04:45:08.010Z,5.63
2018-04-14T04:47:00.840Z,5.63
2018-04-14T04:48:00.756Z,5.63
2018-04-14T04:49:53.533Z,5.63
2018-04-14T04:50:53.463Z,5.63
2018-04-14T04:52:45.332Z,5.63
2018-04-14T04:53:45.255Z,5.63
2018-04-14T04:55:37.025Z,5.63
2018-04-14T04:56:36.963Z,5.63
2018-04-14T04:58:28.748Z,5.63
2018-04-14T04:59:28.682Z,5.63
2018-04-14T05:01:20.467Z,5.63
2018-04-14T05:02:20.387Z,5.63
2018-04-14T05:04:12.158Z,5.63
2018-04-14T05:05:12.097Z,5.63
2018-04-14T05:07:04.900Z,5.63
2018-04-14T05:08:04.818Z,5.63
2018-04-14T05:09:56.665Z,5.63
2018-04-14T05:10:56.543Z,5.63
2018-04-14T05:12:48.366Z,5.63
2018-04-14T05:13:48.300Z,11.25
2018-04-14T05:15:41.052Z,11.25
2018-04-14T05:16:40.989Z,11.25
2018-04-14T05:18:33.773Z,11.25
2018-04-14T05:19:33.699Z,11.25
2018-04-14T05:21:26.476Z,11.25
2018-04-14T05:22:26.396Z,16.88
2018-04-14T05:24:19.165Z,16.88
2018-04-14T05:25:19.109Z,22.50
2018-04-14T05:27:11.070Z,28.13
2018-04-14T05:28:10.999Z,28.13
2018-04-14T05:30:02.938Z,33.75
2018-04-14T05:31:02.870Z,39.38
2018-04-14T05:32:55.678Z,39.38
2018-04-14T05:33:55.580Z,39.38
2018-04-14T05:35:48.371Z,45.00
2018-04-14T05:36:48.305Z,50.63
2018-04-14T05:38:41.075Z,50.63
2018-04-14T05:39:41.002Z,50.63
2018-04-14T05:41:33.763Z,33.75
2018-04-14T05:42:33.711Z,28.13
2018-04-14T05:44:26.478Z,39.38
2018-04-14T05:45:26.406Z,33.75
2018-04-14T05:47:19.202Z,28.13
2018-04-14T05:48:19.121Z,39.38
2018-04-14T05:50:10.883Z,33.75
2018-04-14T05:51:10.822Z,22.50
2018-04-14T05:53:03.601Z,22.50
2018-04-14T05:54:03.538Z,33.75
2018-04-14T05:55:55.412Z,33.75
2018-04-14T05:56:55.350Z,22.50
2018-04-14T05:58:48.159Z,22.50
2018-04-14T05:59:48.055Z,28.13
2018-04-14T06:01:39.942Z,39.38
2018-04-14T06:02:39.884Z,45.00
2018-04-14T06:04:31.677Z,61.88
2018-04-14T06:05:31.580Z,61.88
2018-04-14T06:07:24.366Z,61.88
2018-04-14T06:08:24.298Z,56.25
2018-04-14T06:10:17.066Z,90.00
2018-04-14T06:11:17.023Z,106.88
2018-04-14T06:13:08.937Z,112.50
2018-04-14T06:14:08.862Z,106.88
2018-04-14T06:16:01.635Z,101.25
2018-04-14T06:17:01.569Z,106.88
2018-04-14T06:18:53.335Z,106.88
2018-04-14T06:19:53.258Z,101.25
2018-04-14T06:21:45.167Z,101.25
2018-04-14T06:22:45.100Z,95.63
2018-04-14T06:24:36.935Z,90.00
2018-04-14T06:25:36.861Z,90.00
2018-04-14T06:27:29.621Z,90.00
2018-04-14T06:28:29.564Z,90.00
2018-04-14T06:30:21.336Z,90.00
2018-04-14T06:31:21.252Z,90.00
2018-04-14T06:33:13.164Z,95.63
2018-04-14T06:34:13.076Z,106.88
2018-04-14T06:36:04.856Z,118.13
2018-04-14T06:37:04.792Z,118.13
2018-04-14T06:38:56.620Z,112.50
2018-04-14T06:39:56.539Z,106.88
2018-04-14T06:41:48.441Z,112.50
2018-04-14T06:42:48.497Z,118.13
2018-04-14T06:44:40.187Z,157.50
2018-04-14T06:45:40.114Z,168.75
2018-04-14T06:47:32.885Z,196.88
2018-04-14T06:48:32.820Z,225.00
2018-04-14T06:50:24.630Z,258.75
2018-04-14T06:51:24.560Z,298.13
2018-04-14T06:53:16.410Z,365.63
2018-04-14T06:54:16.340Z,534.38
2018-04-14T06:56:08.134Z,579.38
2018-04-14T06:57:08.050Z,523.13
2018-04-14T06:58:59.812Z,596.25
2018-04-14T06:59:59.740Z,601.88
2018-04-14T07:01:52.552Z,652.50
2018-04-14T07:02:52.456Z,641.25
2018-04-14T07:04:44.242Z,680.63
2018-04-14T07:05:44.168Z,421.88
2018-04-14T07:07:35.926Z,416.25
2018-04-14T07:08:35.851Z,405.00
2018-04-14T07:10:27.677Z,438.75
2018-04-14T07:11:27.604Z,478.13
2018-04-14T07:13:20.376Z,776.25
2018-04-14T07:14:20.333Z,973.13
2018-04-14T07:16:12.096Z,613.13
2018-04-14T07:17:12.022Z,871.88
2018-04-14T07:19:03.995Z,866.25
2018-04-14T07:20:03.922Z,1108.13
2018-04-14T07:21:55.751Z,517.50
2018-04-14T07:22:55.681Z,725.63
2018-04-14T07:24:48.494Z,528.75
2018-04-14T07:25:48.417Z,534.38
2018-04-14T07:27:40.179Z,646.88
2018-04-14T07:28:40.116Z,540.00
2018-04-14T07:30:32.895Z,433.13
2018-04-14T07:31:32.859Z,416.25
2018-04-14T07:33:24.570Z,320.63
2018-04-14T07:34:24.508Z,236.25
2018-04-14T07:36:16.291Z,202.50
2018-04-14T07:37:16.209Z,225.00
2018-04-14T07:39:09.008Z,326.25
2018-04-14T07:40:08.967Z,354.38
2018-04-14T07:42:01.744Z,399.38
2018-04-14T07:43:01.663Z,421.88
2018-04-14T07:44:53.503Z,315.00
2018-04-14T07:45:53.425Z,360.00
2018-04-14T07:47:45.273Z,331.88
2018-04-14T07:48:45.207Z,348.75
2018-04-14T07:50:36.988Z,601.88
2018-04-14T07:51:36.927Z,438.75
2018-04-14T07:53:29.676Z,405.00
2018-04-14T07:54:29.611Z,472.50
2018-04-14T07:56:21.530Z,382.50
2018-04-14T07:57:21.454Z,337.50
2018-04-14T07:59:14.254Z,270.00
2018-04-14T08:00:14.191Z,264.38
2018-04-14T08:02:06.982Z,348.75
2018-04-14T08:03:06.908Z,399.38
2018-04-14T08:04:58.797Z,427.50
2018-04-14T08:05:58.722Z,399.38
2018-04-14T08:07:50.546Z,382.50
2018-04-14T08:08:50.474Z,433.13
2018-04-14T08:10:43.296Z,416.25
2018-04-14T08:11:43.191Z,416.25
2018-04-14T08:13:35.023Z,523.13
2018-04-14T08:14:34.955Z,596.25
2018-04-14T08:16:26.727Z,421.88
2018-04-14T08:17:26.657Z,511.88
2018-04-14T08:19:19.433Z,871.88
2018-04-14T08:20:19.371Z,1243.13
2018-04-14T08:22:12.223Z,1220.63
2018-04-14T08:23:12.090Z,1372.50
2018-04-14T08:25:04.877Z,691.88
2018-04-14T08:26:04.814Z,826.88
2018-04-14T08:27:57.606Z,742.50
2018-04-14T08:28:57.537Z,697.50
2018-04-14T08:30:49.388Z,1147.50
2018-04-14T08:31:49.311Z,1243.13
2018-04-14T08:33:42.122Z,1327.50
2018-04-14T08:34:42.022Z,883.13
2018-04-14T08:36:33.941Z,579.38
2018-04-14T08:37:33.867Z,421.88
2018-04-14T08:39:25.695Z,545.63
2018-04-14T08:40:25.639Z,534.38
2018-04-14T08:42:17.424Z,433.13
2018-04-14T08:43:17.353Z,405.00
2018-04-14T08:45:09.130Z,326.25
2018-04-14T08:46:09.070Z,298.13
2018-04-14T08:48:01.873Z,241.88
2018-04-14T08:49:01.799Z,292.50
2018-04-14T08:50:54.576Z,483.75
2018-04-14T08:51:54.518Z,832.50
2018-04-14T08:53:46.458Z,1035.00
2018-04-14T08:54:46.340Z,646.88
2018-04-14T08:56:39.167Z,489.38
2018-04-14T08:57:39.074Z,450.00
2018-04-14T08:59:30.885Z,675.00
2018-04-14T09:00:30.772Z,984.38
2018-04-14T09:02:22.657Z,292.50
2018-04-14T09:03:22.587Z,247.50
2018-04-14T09:05:14.390Z,140.63
2018-04-14T09:06:14.337Z,118.13
2018-04-14T09:08:06.146Z,90.00
2018-04-14T09:09:06.091Z,78.75
2018-04-14T09:10:57.850Z,135.00
2018-04-14T09:11:57.809Z,174.38
2018-04-14T09:13:49.639Z,247.50
2018-04-14T09:14:49.572Z,219.38
2018-04-14T09:16:41.392Z,225.00
2018-04-14T09:17:41.300Z,315.00
2018-04-14T09:19:33.080Z,135.00
2018-04-14T09:20:33.004Z,118.13
2018-04-14T09:22:24.780Z,196.88
2018-04-14T09:23:24.708Z,292.50
2018-04-14T09:25:16.480Z,168.75
2018-04-14T09:26:16.411Z,163.13
2018-04-14T09:28:08.193Z,151.88
2018-04-14T09:29:08.122Z,348.75
2018-04-14T09:30:59.883Z,635.63
2018-04-14T09:31:59.833Z,511.88
2018-04-14T09:33:51.607Z,500.63
2018-04-14T09:34:51.527Z,922.50
2018-04-14T09:36:43.281Z,770.63
2018-04-14T09:37:43.225Z,714.38
2018-04-14T09:39:35.021Z,652.50
2018-04-14T09:40:34.956Z,601.88
2018-04-14T09:42:26.754Z,438.75
2018-04-14T09:43:26.666Z,495.00
2018-04-14T09:45:18.471Z,1018.13
2018-04-14T09:46:18.427Z,1350.00
2018-04-14T09:48:10.212Z,1659.38
2018-04-14T09:49:10.176Z,1327.50
2018-04-14T09:51:01.932Z,776.25
2018-04-14T09:52:01.844Z,753.75
2018-04-14T09:53:53.641Z,1113.75
2018-04-14T09:54:53.572Z,950.63
2018-04-14T09:56:45.357Z,455.63
2018-04-14T09:57:45.294Z,545.63
2018-04-14T09:59:37.162Z,461.25
2018-04-14T10:00:37.084Z,427.50
2018-04-14T10:02:29.025Z,376.88
2018-04-14T10:03:28.821Z,360.00
2018-04-14T10:05:20.607Z,663.75
2018-04-14T10:06:20.498Z,511.88
2018-04-14T10:08:12.312Z,596.25
2018-04-14T10:09:12.232Z,675.00
2018-04-14T10:11:03.986Z,427.50
2018-04-14T10:12:03.918Z,444.38
2018-04-14T10:13:55.758Z,399.38
2018-04-14T10:14:55.621Z,405.00
2018-04-14T10:16:47.382Z,320.63
2018-04-14T10:17:47.316Z,326.25
2018-04-14T10:19:39.146Z,236.25
2018-04-14T10:20:39.032Z,208.13
2018-04-14T10:22:30.774Z,241.88
2018-04-14T10:23:30.720Z,275.63
2018-04-14T10:25:22.518Z,185.63
2018-04-14T10:26:22.483Z,185.63
2018-04-14T10:28:14.260Z,286.88
2018-04-14T10:29:14.155Z,258.75
2018-04-14T10:31:05.976Z,343.13
2018-04-14T10:32:05.949Z,343.13
2018-04-14T10:33:57.734Z,388.13
2018-04-14T10:34:57.794Z,416.25
2018-04-14T10:36:49.416Z,556.88
2018-04-14T10:37:49.425Z,416.25
2018-04-14T10:39:41.152Z,410.63
2018-04-14T10:40:41.077Z,630.00
2018-04-14T10:42:32.874Z,326.25
2018-04-14T10:43:32.816Z,236.25
2018-04-14T10:45:24.618Z,388.13
2018-04-14T10:46:24.516Z,354.38
2018-04-14T10:48:16.323Z,281.25
2018-04-14T10:49:16.288Z,230.63
2018-04-14T10:51:08.060Z,241.88
2018-04-14T10:52:07.974Z,196.88
2018-04-14T10:53:59.769Z,208.13
2018-04-14T10:54:59.690Z,208.13
2018-04-14T10:56:51.511Z,202.50
2018-04-14T10:57:51.466Z,213.75
2018-04-14T10:59:43.244Z,360.00
2018-04-14T11:00:43.144Z,331.88
2018-04-14T11:02:34.910Z,225.00
2018-04-14T11:03:34.860Z,208.13
2018-04-14T11:05:26.651Z,191.25
2018-04-14T11:06:26.580Z,174.38
2018-04-14T11:08:18.396Z,140.63
2018-04-14T11:09:18.314Z,123.75
2018-04-14T11:11:10.095Z,118.13
2018-04-14T11:12:10.017Z,140.63
2018-04-14T11:14:01.813Z,140.63
2018-04-14T11:15:01.766Z,129.38
2018-04-14T11:16:54.524Z,157.50
2018-04-14T11:17:54.540Z,146.25
2018-04-14T11:19:46.253Z,123.75
2018-04-14T11:20:46.171Z,123.75
2018-04-14T11:22:37.958Z,286.88
2018-04-14T11:23:37.902Z,405.00
2018-04-14T11:25:29.663Z,483.75
2018-04-14T11:26:29.601Z,540.00
2018-04-14T11:28:21.412Z,630.00
2018-04-14T11:29:21.349Z,742.50
2018-04-14T11:31:13.149Z,877.50
2018-04-14T11:32:13.061Z,815.63
2018-04-14T11:34:04.843Z,618.75
2018-04-14T11:35:04.765Z,540.00
2018-04-14T11:36:56.542Z,495.00
2018-04-14T11:37:56.505Z,478.13
2018-04-14T11:39:48.295Z,528.75
2018-04-14T11:40:48.190Z,433.13
2018-04-14T11:42:40.059Z,286.88
2018-04-14T11:43:39.899Z,219.38
2018-04-14T11:45:31.696Z,202.50
2018-04-14T11:46:31.603Z,213.75
2018-04-14T11:48:23.388Z,253.13
2018-04-14T11:49:23.296Z,264.38
2018-04-14T11:51:15.086Z,292.50
2018-04-14T11:52:15.033Z,309.38
2018-04-14T11:54:06.834Z,320.63
2018-04-14T11:55:06.773Z,303.75
2018-04-14T11:56:58.591Z,230.63
2018-04-14T11:57:58.521Z,196.88
2018-04-14T11:59:50.353Z,202.50
2018-04-14T12:00:50.258Z,213.75
2018-04-14T12:02:42.058Z,174.38
2018-04-14T12:03:42.042Z,180.00
2018-04-14T12:05:33.786Z,151.88
2018-04-14T12:06:33.703Z,123.75
2018-04-14T12:08:25.501Z,90.00
2018-04-14T12:09:25.438Z,73.13
2018-04-14T12:11:17.265Z,73.13
2018-04-14T12:12:17.159Z,95.63
2018-04-14T12:14:08.915Z,129.38
2018-04-14T12:15:08.897Z,146.25
2018-04-14T12:17:00.781Z,146.25
2018-04-14T12:18:00.620Z,168.75
2018-04-14T12:19:52.400Z,213.75
2018-04-14T12:20:52.364Z,213.75
2018-04-14T12:22:44.131Z,241.88
2018-04-14T12:23:44.065Z,236.25
2018-04-14T12:25:35.867Z,258.75
2018-04-14T12:26:35.773Z,241.88
2018-04-14T12:28:27.554Z,236.25
2018-04-14T12:29:27.514Z,236.25
2018-04-14T12:31:19.317Z,365.63
2018-04-14T12:32:19.193Z,438.75
2018-04-14T12:34:11.063Z,393.75
2018-04-14T12:35:10.975Z,365.63
2018-04-14T12:37:02.781Z,309.38
2018-04-14T12:38:02.704Z,286.88
2018-04-14T12:39:54.470Z,258.75
2018-04-14T12:40:54.407Z,275.63
2018-04-14T12:42:46.222Z,292.50
2018-04-14T12:43:46.173Z,286.88
2018-04-14T12:45:38.014Z,315.00
2018-04-14T12:46:37.927Z,309.38
2018-04-14T12:48:29.712Z,315.00
2018-04-14T12:49:29.634Z,405.00
2018-04-14T12:51:21.455Z,365.63
2018-04-14T12:52:21.373Z,298.13
2018-04-14T12:54:13.167Z,202.50
2018-04-14T12:55:13.092Z,151.88
2018-04-14T12:57:04.881Z,106.88
2018-04-14T12:58:04.807Z,84.38
2018-04-14T12:59:56.616Z,73.13
2018-04-14T13:00:56.525Z,73.13
2018-04-14T13:02:48.325Z,95.63
2018-04-14T13:03:48.246Z,106.88
2018-04-14T13:05:40.046Z,135.00
2018-04-14T13:06:39.993Z,157.50
2018-04-14T13:08:31.775Z,219.38
2018-04-14T13:09:31.695Z,236.25
2018-04-14T13:11:23.466Z,213.75
2018-04-14T13:12:23.393Z,213.75
2018-04-14T13:14:15.156Z,191.25
2018-04-14T13:15:15.100Z,196.88
2018-04-14T13:17:06.879Z,320.63
2018-04-14T13:18:06.815Z,343.13
2018-04-14T13:19:59.279Z,275.63
2018-04-14T13:20:59.251Z,298.13
2018-04-14T13:22:51.001Z,337.50
2018-04-14T13:23:50.910Z,393.75
2018-04-14T13:25:42.697Z,495.00
2018-04-14T13:26:42.647Z,551.25
2018-04-14T13:28:34.436Z,495.00
2018-04-14T13:29:34.332Z,444.38
2018-04-14T13:31:26.099Z,365.63
2018-04-14T13:32:26.037Z,416.25
2018-04-14T13:34:17.850Z,365.63
2018-04-14T13:35:17.745Z,331.88
2018-04-14T13:37:09.570Z,309.38
2018-04-14T13:38:09.501Z,303.75
2018-04-14T13:40:01.352Z,309.38
2018-04-14T13:41:01.259Z,309.38
2018-04-14T13:42:53.062Z,303.75
2018-04-14T13:43:52.995Z,298.13
2018-04-14T13:45:44.744Z,292.50
2018-04-14T13:46:44.702Z,286.88
2018-04-14T13:48:36.504Z,286.88
2018-04-14T13:49:36.420Z,281.25
2018-04-14T13:51:28.226Z,281.25
2018-04-14T13:52:28.169Z,270.00
2018-04-14T13:54:19.935Z,264.38
2018-04-14T13:55:19.852Z,264.38
2018-04-14T13:57:11.668Z,258.75
2018-04-14T13:58:11.601Z,258.75
2018-04-14T14:00:03.407Z,264.38
2018-04-14T14:01:03.325Z,270.00
2018-04-14T14:02:55.112Z,281.25
2018-04-14T14:03:55.036Z,275.63
2018-04-14T14:05:46.849Z,230.63
2018-04-14T14:06:46.804Z,208.13
2018-04-14T14:08:38.625Z,196.88
2018-04-14T14:09:38.520Z,219.38
2018-04-14T14:11:30.333Z,292.50
2018-04-14T14:12:30.267Z,281.25
2018-04-14T14:14:22.034Z,253.13
2018-04-14T14:15:21.974Z,275.63
2018-04-14T14:17:13.787Z,213.75
2018-04-14T14:18:13.725Z,208.13
2018-04-14T14:20:05.512Z,213.75
2018-04-14T14:21:05.427Z,174.38
2018-04-14T14:22:57.190Z,151.88
2018-04-14T14:23:57.171Z,185.63
2018-04-14T14:25:48.894Z,168.75
2018-04-14T14:26:48.828Z,163.13
2018-04-14T14:28:40.613Z,129.38
2018-04-14T14:29:40.564Z,118.13
2018-04-14T14:31:32.336Z,118.13
2018-04-14T14:32:32.266Z,106.88
2018-04-14T14:34:24.066Z,123.75
2018-04-14T14:35:24.001Z,168.75
2018-04-14T14:37:15.795Z,163.13
2018-04-14T14:38:15.752Z,157.50
2018-04-14T14:40:07.568Z,174.38
2018-04-14T14:41:07.495Z,180.00
2018-04-14T14:42:59.366Z,196.88
2018-04-14T14:43:59.229Z,225.00
2018-04-14T14:45:50.962Z,303.75
2018-04-14T14:46:50.904Z,320.63
2018-04-14T14:48:42.697Z,320.63
2018-04-14T14:49:42.614Z,281.25
2018-04-14T14:51:34.404Z,253.13
2018-04-14T14:52:34.429Z,241.88
2018-04-14T14:54:26.127Z,230.63
2018-04-14T14:55:26.134Z,230.63
2018-04-14T14:57:17.848Z,225.00
2018-04-14T14:58:17.768Z,225.00
2018-04-14T15:00:09.620Z,225.00
2018-04-14T15:01:09.492Z,213.75
2018-04-14T15:03:01.348Z,208.13
2018-04-14T15:04:01.194Z,202.50
2018-04-14T15:05:53.009Z,202.50
2018-04-14T15:06:52.910Z,202.50
2018-04-14T15:08:44.720Z,196.88
2018-04-14T15:09:44.682Z,191.25
2018-04-14T15:11:36.400Z,191.25
2018-04-14T15:12:36.326Z,202.50
2018-04-14T15:14:28.120Z,191.25
2018-04-14T15:15:28.048Z,191.25
2018-04-14T15:17:19.804Z,185.63
2018-04-14T15:18:19.748Z,185.63
2018-04-14T15:20:11.543Z,208.13
2018-04-14T15:21:11.474Z,202.50
2018-04-14T15:23:03.276Z,185.63
2018-04-14T15:24:03.209Z,196.88
2018-04-14T15:25:54.977Z,174.38
2018-04-14T15:26:54.906Z,174.38
2018-04-14T15:28:46.670Z,168.75
2018-04-14T15:29:46.611Z,180.00
2018-04-14T15:31:38.408Z,174.38
2018-04-14T15:32:38.336Z,168.75
2018-04-14T15:34:30.117Z,168.75
2018-04-14T15:35:30.091Z,168.75
2018-04-14T15:37:21.802Z,163.13
2018-04-14T15:38:21.738Z,163.13
2018-04-14T15:40:13.582Z,163.13
2018-04-14T15:41:13.461Z,163.13
2018-04-14T15:43:05.226Z,157.50
2018-04-14T15:44:05.182Z,151.88
2018-04-14T15:45:56.933Z,157.50
2018-04-14T15:46:56.874Z,151.88
2018-04-14T15:48:48.697Z,151.88
2018-04-14T15:49:48.570Z,146.25
2018-04-14T15:51:40.397Z,146.25
2018-04-14T15:52:40.303Z,146.25
2018-04-14T15:54:32.088Z,140.63
2018-04-14T15:55:32.104Z,140.63
2018-04-14T15:57:23.807Z,129.38
2018-04-14T15:58:23.711Z,135.00
2018-04-14T16:00:15.511Z,140.63
2018-04-14T16:01:15.431Z,146.25
2018-04-14T16:03:07.243Z,185.63
2018-04-14T16:04:09.790Z,163.13
2018-04-14T16:05:58.983Z,157.50
2018-04-14T16:06:58.911Z,180.00
2018-04-14T16:08:50.669Z,191.25
2018-04-14T16:09:50.600Z,180.00
2018-04-14T16:11:42.435Z,140.63
2018-04-14T16:12:42.359Z,140.63
2018-04-14T16:14:34.194Z,146.25
2018-04-14T16:15:34.093Z,151.88
2018-04-14T16:17:25.875Z,163.13
2018-04-14T16:18:25.785Z,174.38
2018-04-14T16:20:17.569Z,180.00
2018-04-14T16:21:17.496Z,191.25
2018-04-14T16:23:09.384Z,180.00
2018-04-14T16:24:09.223Z,151.88
2018-04-14T16:26:01.071Z,129.38
2018-04-14T16:27:00.997Z,118.13
2018-04-14T16:28:52.779Z,118.13
2018-04-14T16:29:52.714Z,118.13
2018-04-14T16:31:44.499Z,112.50
2018-04-14T16:32:44.458Z,112.50
2018-04-14T16:34:36.194Z,106.88
2018-04-14T16:35:36.129Z,101.25
2018-04-14T16:37:27.926Z,101.25
2018-04-14T16:38:27.851Z,95.63
2018-04-14T16:40:19.640Z,90.00
2018-04-14T16:41:19.643Z,84.38
2018-04-14T16:43:11.331Z,78.75
2018-04-14T16:44:11.261Z,78.75
2018-04-14T16:46:03.042Z,78.75
2018-04-14T16:47:02.979Z,78.75
2018-04-14T16:48:54.759Z,78.75
2018-04-14T16:49:54.675Z,78.75
2018-04-14T16:51:46.528Z,78.75
2018-04-14T16:52:46.380Z,78.75
2018-04-14T16:54:38.168Z,78.75
2018-04-14T16:55:38.092Z,73.13
2018-04-14T16:57:29.911Z,73.13
2018-04-14T16:58:29.835Z,73.13
2018-04-14T17:00:21.609Z,73.13
2018-04-14T17:01:21.588Z,73.13
2018-04-14T17:03:13.428Z,73.13
2018-04-14T17:04:13.303Z,73.13
2018-04-14T17:06:05.089Z,67.50
2018-04-14T17:07:04.992Z,67.50
2018-04-14T17:08:56.797Z,61.88
2018-04-14T17:09:56.756Z,61.88
2018-04-14T17:11:48.548Z,61.88
2018-04-14T17:12:48.476Z,61.88
2018-04-14T17:14:40.375Z,56.25
2018-04-14T17:15:40.257Z,56.25
2018-04-14T17:17:32.068Z,50.63
2018-04-14T17:18:32.016Z,50.63
2018-04-14T17:20:23.774Z,45.00
2018-04-14T17:21:23.707Z,45.00
2018-04-14T17:23:15.540Z,45.00
2018-04-14T17:24:15.454Z,39.38
2018-04-14T17:26:07.226Z,39.38
2018-04-14T17:27:07.154Z,39.38
2018-04-14T17:28:59.022Z,33.75
2018-04-14T17:29:58.951Z,33.75
2018-04-14T17:31:50.837Z,33.75
2018-04-14T17:32:50.712Z,33.75
2018-04-14T17:34:42.523Z,28.13
2018-04-14T17:35:42.466Z,28.13
2018-04-14T17:37:34.298Z,28.13
2018-04-14T17:38:34.203Z,22.50
2018-04-14T17:40:26.038Z,22.50
2018-04-14T17:41:26.002Z,22.50
2018-04-14T17:43:17.827Z,16.88
2018-04-14T17:44:17.784Z,16.88
2018-04-14T17:46:09.629Z,16.88
2018-04-14T17:47:09.475Z,16.88
2018-04-14T17:49:01.360Z,11.25
2018-04-14T17:50:01.257Z,11.25
2018-04-14T17:51:53.042Z,11.25
2018-04-14T17:52:52.940Z,11.25
2018-04-14T17:54:45.063Z,11.25
2018-04-14T17:55:44.689Z,11.25
2018-04-14T17:57:36.472Z,5.63
2018-04-14T17:58:36.375Z,5.63
2018-04-14T18:00:28.150Z,5.63
2018-04-14T18:01:28.100Z,5.63
2018-04-14T18:03:19.974Z,5.63
2018-04-14T18:04:19.813Z,5.63
2018-04-14T18:06:11.577Z,0.00
2018-04-14T18:07:11.505Z,0.00
2018-04-14T18:09:03.278Z,0.00
2018-04-14T18:10:03.238Z,0.00
2018-04-14T18:11:54.970Z,0.00
2018-04-14T18:12:54.905Z,0.00
2018-04-14T18:14:46.681Z,0.00
2018-04-14T18:15:46.620Z,0.00
2018-04-14T18:17:38.393Z,0.00